PWSweather.com
Personal Weather Stations
Station Observations
KMICHEBO10
Cordwood Point, Lake Huron, Cheboygan, MI 49721

Cordwood Point, Lake HuronCheboygan, MI 49721

Lat: 45.663372, Lon: -84.3327789

Elevation: 584

Station Type: Davis Vantage Pro2 Wireless

www.lakehuronweather.org

High Low Average
Temperature 63.3°F17.4°F 51.2°F10.7°F 58.8°F14.9°F
Dew Point 56.9°F13.8°F 45.9°F7.7°F 50.1°F10.1°F
Winds 4.6 mph -7.4 mph - Calm Calm 1.6 mph 2.6 mph
Wind Gusts 9.2 mph14.8 mph -- 2.9 mph4.7 mph
Humidity 93% 56% 73%
Pressure 29.97 in1014.90 in 29.86 in1011.20 in -
Precipitation 0.00 in0.00 in - -
Hour Temp Dew Point Humidity Winds Wind Gusts Pressure Precip Precip Rate Daily Precip Total
12:00 AM 59.7°F15.4°C 53.5°F11.9°C 80% Calm Calm -- 29.86 in1011.2 mb - 0.00 in0.0 mm 0.00 in0.0 mm
12:10 AM 59.5°F15.3°C 53.7°F12.1°C 81% Calm Calm -- 29.87 in1011.5 mb - 0.00 in0.0 mm 0.00 in0.0 mm
12:20 AM 59.1°F15.1°C 53.3°F11.8°C 81% Calm Calm -- 29.87 in1011.5 mb - 0.00 in0.0 mm 0.00 in0.0 mm
12:30 AM 58.7°F14.8°C 52.9°F11.6°C 81% Calm Calm -- 29.87 in1011.5 mb - 0.00 in0.0 mm 0.00 in0.0 mm
12:40 AM 58.3°F14.6°C 52.9°F11.6°C 82% Calm Calm -- 29.87 in1011.5 mb - 0.00 in0.0 mm 0.00 in0.0 mm
12:50 AM 58.0°F14.4°C 52.9°F11.6°C 83% Calm Calm -- 29.87 in1011.5 mb - 0.00 in0.0 mm 0.00 in0.0 mm
01:00 AM 57.6°F14.2°C 52.5°F11.4°C 83% Calm Calm -- 29.87 in1011.5 mb - 0.00 in0.0 mm 0.00 in0.0 mm
01:10 AM 57.3°F14.1°C 52.5°F11.4°C 84% Calm Calm -- 29.87 in1011.5 mb - 0.00 in0.0 mm 0.00 in0.0 mm
01:20 AM 57.0°F13.9°C 52.5°F11.4°C 85% Calm Calm -- 29.87 in1011.5 mb - 0.00 in0.0 mm 0.00 in0.0 mm
01:30 AM 56.8°F13.8°C 52.7°F11.5°C 86% Calm Calm -- 29.88 in1011.9 mb - 0.00 in0.0 mm 0.00 in0.0 mm
01:40 AM 56.7°F13.7°C 52.9°F11.6°C 87% Calm Calm -- 29.88 in1011.9 mb - 0.00 in0.0 mm 0.00 in0.0 mm
01:50 AM 56.7°F13.7°C 53.5°F11.9°C 89% Calm Calm -- 29.88 in1011.9 mb - 0.00 in0.0 mm 0.00 in0.0 mm
02:00 AM 56.7°F13.7°C 53.8°F12.1°C 90% Calm Calm -- 29.88 in1011.9 mb - 0.00 in0.0 mm 0.00 in0.0 mm
02:10 AM 57.1°F13.9°C 54.5°F12.5°C 91% Calm Calm -- 29.88 in1011.9 mb - 0.00 in0.0 mm 0.00 in0.0 mm
02:20 AM 57.6°F14.2°C 55.6°F13.1°C 93% Calm Calm -- 29.88 in1011.9 mb - 0.00 in0.0 mm 0.00 in0.0 mm
02:30 AM 58.7°F14.8°C 56.4°F13.6°C 92% Calm Calm 1.2 mph1.9 kmh 29.88 in1011.9 mb - 0.00 in0.0 mm 0.00 in0.0 mm
02:40 AM 59.5°F15.3°C 56.9°F13.8°C 91% Calm Calm 1.2 mph1.9 kmh 29.88 in1011.9 mb - 0.00 in0.0 mm 0.00 in0.0 mm
02:50 AM 59.7°F15.4°C 56.5°F13.6°C 89% 1.2 mph SE1.9 kmh SE 3.5 mph5.6 kmh 29.88 in1011.9 mb - 0.00 in0.0 mm 0.00 in0.0 mm
03:00 AM 59.7°F15.4°C 56.1°F13.4°C 88% 1.2 mph NE1.9 kmh NE 3.5 mph5.6 kmh 29.88 in1011.9 mb - 0.00 in0.0 mm 0.00 in0.0 mm
03:10 AM 59.6°F15.3°C 55.7°F13.2°C 87% 1.2 mph E1.9 kmh E 2.3 mph3.7 kmh 29.87 in1011.5 mb - 0.00 in0.0 mm 0.00 in0.0 mm
03:20 AM 59.6°F15.3°C 55.4°F13.0°C 86% Calm Calm -- 29.87 in1011.5 mb - 0.00 in0.0 mm 0.00 in0.0 mm
03:30 AM 59.5°F15.3°C 55.3°F12.9°C 86% Calm Calm 2.3 mph3.7 kmh 29.88 in1011.9 mb - 0.00 in0.0 mm 0.00 in0.0 mm
03:40 AM 59.4°F15.2°C 55.2°F12.9°C 86% Calm Calm 1.2 mph1.9 kmh 29.88 in1011.9 mb - 0.00 in0.0 mm 0.00 in0.0 mm
03:50 AM 59.2°F15.1°C 54.7°F12.6°C 85% Calm Calm -- 29.88 in1011.9 mb - 0.00 in0.0 mm 0.00 in0.0 mm
04:00 AM 59.1°F15.1°C 54.6°F12.6°C 85% Calm Calm 1.2 mph1.9 kmh 29.88 in1011.9 mb - 0.00 in0.0 mm 0.00 in0.0 mm
04:10 AM 59.0°F15.0°C 54.2°F12.3°C 84% Calm Calm -- 29.88 in1011.9 mb - 0.00 in0.0 mm 0.00 in0.0 mm
04:20 AM 58.8°F14.9°C 54.0°F12.2°C 84% 1.2 mph ESE1.9 kmh ESE 2.3 mph3.7 kmh 29.89 in1012.2 mb - 0.00 in0.0 mm 0.00 in0.0 mm
04:30 AM 58.8°F14.9°C 53.6°F12.0°C 83% 1.2 mph SE1.9 kmh SE 1.2 mph1.9 kmh 29.89 in1012.2 mb - 0.00 in0.0 mm 0.00 in0.0 mm
04:40 AM 58.7°F14.8°C 53.5°F11.9°C 83% Calm Calm 2.3 mph3.7 kmh 29.89 in1012.2 mb - 0.00 in0.0 mm 0.00 in0.0 mm
04:50 AM 58.5°F14.7°C 53.4°F11.9°C 83% 1.2 mph SE1.9 kmh SE 2.3 mph3.7 kmh 29.89 in1012.2 mb - 0.00 in0.0 mm 0.00 in0.0 mm
05:00 AM 58.3°F14.6°C 53.5°F11.9°C 84% Calm Calm 2.3 mph3.7 kmh 29.89 in1012.2 mb - 0.00 in0.0 mm 0.00 in0.0 mm
05:10 AM 58.0°F14.4°C 53.2°F11.8°C 84% Calm Calm 1.2 mph1.9 kmh 29.89 in1012.2 mb - 0.00 in0.0 mm 0.00 in0.0 mm
05:20 AM 57.9°F14.4°C 53.1°F11.7°C 84% 1.2 mph E1.9 kmh E 2.3 mph3.7 kmh 29.89 in1012.2 mb - 0.00 in0.0 mm 0.00 in0.0 mm
05:30 AM 57.8°F14.3°C 53.0°F11.7°C 84% 1.2 mph E1.9 kmh E 4.6 mph7.4 kmh 29.90 in1012.5 mb - 0.00 in0.0 mm 0.00 in0.0 mm
05:40 AM 57.6°F14.2°C 52.8°F11.6°C 84% 1.2 mph ESE1.9 kmh ESE 1.2 mph1.9 kmh 29.90 in1012.5 mb - 0.00 in0.0 mm 0.00 in0.0 mm
05:50 AM 57.5°F14.2°C 52.7°F11.5°C 84% Calm Calm 1.2 mph1.9 kmh 29.90 in1012.5 mb - 0.00 in0.0 mm 0.00 in0.0 mm
06:00 AM 57.5°F14.2°C 52.7°F11.5°C 84% 1.2 mph ESE1.9 kmh ESE 2.3 mph3.7 kmh 29.91 in1012.9 mb - 0.00 in0.0 mm 0.00 in0.0 mm
06:10 AM 57.5°F14.2°C 52.4°F11.3°C 83% 1.2 mph SE1.9 kmh SE 2.3 mph3.7 kmh 29.91 in1012.9 mb - 0.00 in0.0 mm 0.00 in0.0 mm
06:20 AM 57.6°F14.2°C 52.2°F11.2°C 82% Calm Calm 2.3 mph3.7 kmh 29.91 in1012.9 mb - 0.00 in0.0 mm 0.00 in0.0 mm
06:30 AM 57.8°F14.3°C 52.3°F11.3°C 82% 1.2 mph E1.9 kmh E 2.3 mph3.7 kmh 29.91 in1012.9 mb - 0.00 in0.0 mm 0.00 in0.0 mm
06:40 AM 57.8°F14.3°C 52.0°F11.1°C 81% 2.3 mph E3.7 kmh E 3.5 mph5.6 kmh 29.91 in1012.9 mb - 0.00 in0.0 mm 0.00 in0.0 mm
06:50 AM 58.0°F14.4°C 52.2°F11.2°C 81% 1.2 mph ESE1.9 kmh ESE 3.5 mph5.6 kmh 29.92 in1013.2 mb - 0.00 in0.0 mm 0.00 in0.0 mm
07:00 AM 58.1°F14.5°C 52.0°F11.1°C 80% 2.3 mph ESE3.7 kmh ESE 3.5 mph5.6 kmh 29.92 in1013.2 mb - 0.00 in0.0 mm 0.00 in0.0 mm
07:10 AM 58.2°F14.6°C 51.7°F10.9°C 79% 1.2 mph E1.9 kmh E 2.3 mph3.7 kmh 29.92 in1013.2 mb - 0.00 in0.0 mm 0.00 in0.0 mm
07:20 AM 58.2°F14.6°C 51.0°F10.6°C 77% 3.5 mph E5.6 kmh E 4.6 mph7.4 kmh 29.93 in1013.5 mb - 0.00 in0.0 mm 0.00 in0.0 mm
07:30 AM 58.4°F14.7°C 51.2°F10.7°C 77% 3.5 mph ENE5.6 kmh ENE 6.9 mph11.1 kmh 29.93 in1013.5 mb - 0.00 in0.0 mm 0.00 in0.0 mm
07:40 AM 58.4°F14.7°C 50.9°F10.5°C 76% 3.5 mph SE5.6 kmh SE 4.6 mph7.4 kmh 29.93 in1013.5 mb - 0.00 in0.0 mm 0.00 in0.0 mm
07:50 AM 58.4°F14.7°C 51.6°F10.9°C 78% 2.3 mph NE3.7 kmh NE 4.6 mph7.4 kmh 29.94 in1013.9 mb - 0.00 in0.0 mm 0.00 in0.0 mm
08:00 AM 58.2°F14.6°C 51.4°F10.8°C 78% 2.3 mph ESE3.7 kmh ESE 4.6 mph7.4 kmh 29.94 in1013.9 mb - 0.00 in0.0 mm 0.00 in0.0 mm
08:10 AM 58.0°F14.4°C 51.2°F10.7°C 78% 1.2 mph E1.9 kmh E 3.5 mph5.6 kmh 29.94 in1013.9 mb - 0.00 in0.0 mm 0.00 in0.0 mm
08:20 AM 58.0°F14.4°C 51.2°F10.7°C 78% 2.3 mph E3.7 kmh E 3.5 mph5.6 kmh 29.94 in1013.9 mb - 0.00 in0.0 mm 0.00 in0.0 mm
08:30 AM 57.8°F14.3°C 50.6°F10.3°C 77% 2.3 mph NE3.7 kmh NE 4.6 mph7.4 kmh 29.95 in1014.2 mb - 0.00 in0.0 mm 0.00 in0.0 mm
08:40 AM 57.8°F14.3°C 50.6°F10.3°C 77% 3.5 mph E5.6 kmh E 4.6 mph7.4 kmh 29.95 in1014.2 mb - 0.00 in0.0 mm 0.00 in0.0 mm
08:50 AM 57.8°F14.3°C 50.6°F10.3°C 77% 2.3 mph ENE3.7 kmh ENE 3.5 mph5.6 kmh 29.95 in1014.2 mb - 0.00 in0.0 mm 0.00 in0.0 mm
09:00 AM 58.1°F14.5°C 50.6°F10.3°C 76% 2.3 mph E3.7 kmh E 2.3 mph3.7 kmh 29.95 in1014.2 mb - 0.00 in0.0 mm 0.00 in0.0 mm
09:10 AM 58.3°F14.6°C 50.0°F10.0°C 74% 2.3 mph ENE3.7 kmh ENE 4.6 mph7.4 kmh 29.95 in1014.2 mb - 0.00 in0.0 mm 0.00 in0.0 mm
09:20 AM 58.3°F14.6°C 49.7°F9.8°C 73% 2.3 mph E3.7 kmh E 3.5 mph5.6 kmh 29.95 in1014.2 mb - 0.00 in0.0 mm 0.00 in0.0 mm
09:30 AM 58.5°F14.7°C 49.5°F9.7°C 72% 2.3 mph NE3.7 kmh NE 4.6 mph7.4 kmh 29.95 in1014.2 mb - 0.00 in0.0 mm 0.00 in0.0 mm
09:40 AM 58.5°F14.7°C 49.5°F9.7°C 72% 3.5 mph SE5.6 kmh SE 5.8 mph9.3 kmh 29.95 in1014.2 mb - 0.00 in0.0 mm 0.00 in0.0 mm
09:50 AM 58.8°F14.9°C 50.2°F10.1°C 73% 1.2 mph E1.9 kmh E 4.6 mph7.4 kmh 29.96 in1014.6 mb - 0.00 in0.0 mm 0.00 in0.0 mm
10:00 AM 59.2°F15.1°C 49.8°F9.9°C 71% 2.3 mph E3.7 kmh E 4.6 mph7.4 kmh 29.96 in1014.6 mb - 0.00 in0.0 mm 0.00 in0.0 mm
10:10 AM 59.0°F15.0°C 50.0°F10.0°C 72% 3.5 mph ENE5.6 kmh ENE 5.8 mph9.3 kmh 29.96 in1014.6 mb - 0.00 in0.0 mm 0.00 in0.0 mm
10:20 AM 59.2°F15.1°C 49.8°F9.9°C 71% 3.5 mph SE5.6 kmh SE 4.6 mph7.4 kmh 29.96 in1014.6 mb - 0.00 in0.0 mm 0.00 in0.0 mm
10:30 AM 59.5°F15.3°C 49.7°F9.8°C 70% 3.5 mph ENE5.6 kmh ENE 4.6 mph7.4 kmh 29.96 in1014.6 mb - 0.00 in0.0 mm 0.00 in0.0 mm
10:40 AM 58.9°F14.9°C 49.5°F9.7°C 71% 2.3 mph E3.7 kmh E 4.6 mph7.4 kmh 29.96 in1014.6 mb - 0.00 in0.0 mm 0.00 in0.0 mm
10:50 AM 58.9°F14.9°C 49.9°F9.9°C 72% 2.3 mph E3.7 kmh E 5.8 mph9.3 kmh 29.96 in1014.6 mb - 0.00 in0.0 mm 0.00 in0.0 mm
11:00 AM 58.8°F14.9°C 50.9°F10.5°C 75% 3.5 mph E5.6 kmh E 6.9 mph11.1 kmh 29.96 in1014.6 mb - 0.00 in0.0 mm 0.00 in0.0 mm
11:10 AM 58.7°F14.8°C 50.1°F10.1°C 73% 2.3 mph E3.7 kmh E 3.5 mph5.6 kmh 29.95 in1014.2 mb - 0.00 in0.0 mm 0.00 in0.0 mm
11:20 AM 59.0°F15.0°C 50.3°F10.2°C 73% 3.5 mph E5.6 kmh E 5.8 mph9.3 kmh 29.95 in1014.2 mb - 0.00 in0.0 mm 0.00 in0.0 mm
11:30 AM 59.1°F15.1°C 49.7°F9.8°C 71% 3.5 mph E5.6 kmh E 3.5 mph5.6 kmh 29.96 in1014.6 mb - 0.00 in0.0 mm 0.00 in0.0 mm
11:40 AM 59.1°F15.1°C 49.7°F9.8°C 71% 3.5 mph ENE5.6 kmh ENE 5.8 mph9.3 kmh 29.96 in1014.6 mb - 0.00 in0.0 mm 0.00 in0.0 mm
11:50 AM 59.0°F15.0°C 48.5°F9.2°C 68% 4.6 mph ENE7.4 kmh ENE 5.8 mph9.3 kmh 29.96 in1014.6 mb - 0.00 in0.0 mm 0.00 in0.0 mm
12:00 PM 59.1°F15.1°C 48.2°F9.0°C 67% 4.6 mph E7.4 kmh E 8.1 mph13.0 kmh 29.96 in1014.6 mb - 0.00 in0.0 mm 0.00 in0.0 mm
12:10 PM 59.3°F15.2°C 49.1°F9.5°C 69% 2.3 mph E3.7 kmh E 6.9 mph11.1 kmh 29.96 in1014.6 mb - 0.00 in0.0 mm 0.00 in0.0 mm
12:20 PM 59.9°F15.5°C 48.5°F9.2°C 66% 3.5 mph NE5.6 kmh NE 4.6 mph7.4 kmh 29.97 in1014.9 mb - 0.00 in0.0 mm 0.00 in0.0 mm
12:30 PM 59.8°F15.4°C 48.0°F8.9°C 65% 2.3 mph E3.7 kmh E 5.8 mph9.3 kmh 29.97 in1014.9 mb - 0.00 in0.0 mm 0.00 in0.0 mm
12:40 PM 60.0°F15.6°C 47.8°F8.8°C 64% 3.5 mph ENE5.6 kmh ENE 4.6 mph7.4 kmh 29.96 in1014.6 mb - 0.00 in0.0 mm 0.00 in0.0 mm
12:50 PM 60.3°F15.7°C 48.0°F8.9°C 64% 4.6 mph E7.4 kmh E 6.9 mph11.1 kmh 29.96 in1014.6 mb - 0.00 in0.0 mm 0.00 in0.0 mm
01:00 PM 59.8°F15.4°C 47.2°F8.4°C 63% 2.3 mph E3.7 kmh E 9.2 mph14.8 kmh 29.97 in1014.9 mb - 0.00 in0.0 mm 0.00 in0.0 mm
01:10 PM 60.1°F15.6°C 46.6°F8.1°C 61% 3.5 mph ENE5.6 kmh ENE 4.6 mph7.4 kmh 29.96 in1014.6 mb - 0.00 in0.0 mm 0.00 in0.0 mm
01:20 PM 59.8°F15.4°C 47.6°F8.7°C 64% 3.5 mph E5.6 kmh E 4.6 mph7.4 kmh 29.96 in1014.6 mb - 0.00 in0.0 mm 0.00 in0.0 mm
01:30 PM 60.4°F15.8°C 47.7°F8.7°C 63% 2.3 mph E3.7 kmh E 5.8 mph9.3 kmh 29.96 in1014.6 mb - 0.00 in0.0 mm 0.00 in0.0 mm
01:40 PM 60.3°F15.7°C 48.5°F9.2°C 65% 3.5 mph ENE5.6 kmh ENE 8.1 mph13.0 kmh 29.96 in1014.6 mb - 0.00 in0.0 mm 0.00 in0.0 mm
01:50 PM 60.0°F15.6°C 47.8°F8.8°C 64% 3.5 mph ENE5.6 kmh ENE 4.6 mph7.4 kmh 29.96 in1014.6 mb - 0.00 in0.0 mm 0.00 in0.0 mm
02:00 PM 59.9°F15.5°C 47.7°F8.7°C 64% 3.5 mph NE5.6 kmh NE 5.8 mph9.3 kmh 29.96 in1014.6 mb - 0.00 in0.0 mm 0.00 in0.0 mm
02:10 PM 60.2°F15.7°C 47.6°F8.7°C 63% 4.6 mph NE7.4 kmh NE 6.9 mph11.1 kmh 29.96 in1014.6 mb - 0.00 in0.0 mm 0.00 in0.0 mm
02:20 PM 59.7°F15.4°C 47.5°F8.6°C 64% 4.6 mph NE7.4 kmh NE 5.8 mph9.3 kmh 29.96 in1014.6 mb - 0.00 in0.0 mm 0.00 in0.0 mm
02:30 PM 60.5°F15.8°C 47.4°F8.6°C 62% 2.3 mph E3.7 kmh E 2.3 mph3.7 kmh 29.96 in1014.6 mb - 0.00 in0.0 mm 0.00 in0.0 mm
02:40 PM 60.6°F15.9°C 47.9°F8.8°C 63% 3.5 mph ENE5.6 kmh ENE 4.6 mph7.4 kmh 29.96 in1014.6 mb - 0.00 in0.0 mm 0.00 in0.0 mm
02:50 PM 61.6°F16.4°C 46.7°F8.2°C 58% 2.3 mph E3.7 kmh E 3.5 mph5.6 kmh 29.95 in1014.2 mb - 0.00 in0.0 mm 0.00 in0.0 mm
03:00 PM 62.4°F16.9°C 47.4°F8.6°C 58% 2.3 mph NE3.7 kmh NE 4.6 mph7.4 kmh 29.95 in1014.2 mb - 0.00 in0.0 mm 0.00 in0.0 mm
03:10 PM 61.6°F16.4°C 48.0°F8.9°C 61% 3.5 mph NE5.6 kmh NE 5.8 mph9.3 kmh 29.95 in1014.2 mb - 0.00 in0.0 mm 0.00 in0.0 mm
03:20 PM 62.3°F16.8°C 48.2°F9.0°C 60% 2.3 mph ENE3.7 kmh ENE 4.6 mph7.4 kmh 29.95 in1014.2 mb - 0.00 in0.0 mm 0.00 in0.0 mm
03:30 PM 62.5°F16.9°C 48.0°F8.9°C 59% 4.6 mph ENE7.4 kmh ENE 6.9 mph11.1 kmh 29.95 in1014.2 mb - 0.00 in0.0 mm 0.00 in0.0 mm
03:40 PM 61.8°F16.6°C 47.8°F8.8°C 60% 2.3 mph NE3.7 kmh NE 3.5 mph5.6 kmh 29.94 in1013.9 mb - 0.00 in0.0 mm 0.00 in0.0 mm
03:50 PM 61.5°F16.4°C 47.9°F8.8°C 61% 2.3 mph ENE3.7 kmh ENE 4.6 mph7.4 kmh 29.94 in1013.9 mb - 0.00 in0.0 mm 0.00 in0.0 mm
04:00 PM 61.3°F16.3°C 47.8°F8.8°C 61% 3.5 mph ENE5.6 kmh ENE 5.8 mph9.3 kmh 29.94 in1013.9 mb - 0.00 in0.0 mm 0.00 in0.0 mm
04:10 PM 61.4°F16.3°C 47.8°F8.8°C 61% 2.3 mph NE3.7 kmh NE 4.6 mph7.4 kmh 29.94 in1013.9 mb - 0.00 in0.0 mm 0.00 in0.0 mm
04:20 PM 62.3°F16.8°C 47.3°F8.5°C 58% 2.3 mph NE3.7 kmh NE 3.5 mph5.6 kmh 29.93 in1013.5 mb - 0.00 in0.0 mm 0.00 in0.0 mm
04:30 PM 62.6°F17.0°C 47.7°F8.7°C 58% 3.5 mph ENE5.6 kmh ENE 4.6 mph7.4 kmh 29.93 in1013.5 mb - 0.00 in0.0 mm 0.00 in0.0 mm
04:40 PM 62.9°F17.2°C 47.0°F8.3°C 56% 2.3 mph ENE3.7 kmh ENE 3.5 mph5.6 kmh 29.93 in1013.5 mb - 0.00 in0.0 mm 0.00 in0.0 mm
04:50 PM 63.3°F17.4°C 48.7°F9.3°C 59% 2.3 mph NE3.7 kmh NE 5.8 mph9.3 kmh 29.93 in1013.5 mb - 0.00 in0.0 mm 0.00 in0.0 mm
05:00 PM 62.5°F16.9°C 48.9°F9.4°C 61% 2.3 mph ENE3.7 kmh ENE 4.6 mph7.4 kmh 29.93 in1013.5 mb - 0.00 in0.0 mm 0.00 in0.0 mm
05:10 PM 61.7°F16.5°C 49.4°F9.7°C 64% 2.3 mph ENE3.7 kmh ENE 4.6 mph7.4 kmh 29.93 in1013.5 mb - 0.00 in0.0 mm 0.00 in0.0 mm
05:20 PM 61.2°F16.2°C 49.3°F9.6°C 65% 3.5 mph ENE5.6 kmh ENE 5.8 mph9.3 kmh 29.93 in1013.5 mb - 0.00 in0.0 mm 0.00 in0.0 mm
05:30 PM 60.7°F15.9°C 48.8°F9.3°C 65% 3.5 mph ENE5.6 kmh ENE 4.6 mph7.4 kmh 29.93 in1013.5 mb - 0.00 in0.0 mm 0.00 in0.0 mm
05:40 PM 60.7°F15.9°C 49.3°F9.6°C 66% 3.5 mph ENE5.6 kmh ENE 4.6 mph7.4 kmh 29.93 in1013.5 mb - 0.00 in0.0 mm 0.00 in0.0 mm
05:50 PM 60.6°F15.9°C 50.4°F10.2°C 69% 3.5 mph ENE5.6 kmh ENE 5.8 mph9.3 kmh 29.93 in1013.5 mb - 0.00 in0.0 mm 0.00 in0.0 mm
06:00 PM 60.2°F15.7°C 49.6°F9.8°C 68% 2.3 mph E3.7 kmh E 3.5 mph5.6 kmh 29.92 in1013.2 mb - 0.00 in0.0 mm 0.00 in0.0 mm
06:10 PM 60.5°F15.8°C 49.1°F9.5°C 66% 1.2 mph E1.9 kmh E 3.5 mph5.6 kmh 29.92 in1013.2 mb - 0.00 in0.0 mm 0.00 in0.0 mm
06:20 PM 60.5°F15.8°C 48.3°F9.1°C 64% 2.3 mph ENE3.7 kmh ENE 3.5 mph5.6 kmh 29.92 in1013.2 mb - 0.00 in0.0 mm 0.00 in0.0 mm
06:30 PM 60.4°F15.8°C 49.0°F9.4°C 66% 2.3 mph E3.7 kmh E 2.3 mph3.7 kmh 29.92 in1013.2 mb - 0.00 in0.0 mm 0.00 in0.0 mm
06:40 PM 60.3°F15.7°C 49.7°F9.8°C 68% 1.2 mph SE1.9 kmh SE 4.6 mph7.4 kmh 29.92 in1013.2 mb - 0.00 in0.0 mm 0.00 in0.0 mm
06:50 PM 60.1°F15.6°C 50.3°F10.2°C 70% 1.2 mph E1.9 kmh E 3.5 mph5.6 kmh 29.92 in1013.2 mb - 0.00 in0.0 mm 0.00 in0.0 mm
07:00 PM 59.9°F15.5°C 50.5°F10.3°C 71% 1.2 mph E1.9 kmh E 3.5 mph5.6 kmh 29.92 in1013.2 mb - 0.00 in0.0 mm 0.00 in0.0 mm
07:10 PM 60.0°F15.6°C 50.6°F10.3°C 71% 1.2 mph E1.9 kmh E 2.3 mph3.7 kmh 29.92 in1013.2 mb - 0.00 in0.0 mm 0.00 in0.0 mm
07:20 PM 59.9°F15.5°C 50.4°F10.2°C 71% 1.2 mph E1.9 kmh E 2.3 mph3.7 kmh 29.92 in1013.2 mb - 0.00 in0.0 mm 0.00 in0.0 mm
07:30 PM 59.8°F15.4°C 51.1°F10.6°C 73% 1.2 mph ESE1.9 kmh ESE 1.2 mph1.9 kmh 29.92 in1013.2 mb - 0.00 in0.0 mm 0.00 in0.0 mm
07:40 PM 59.8°F15.4°C 51.1°F10.6°C 73% Calm Calm -- 29.91 in1012.9 mb - 0.00 in0.0 mm 0.00 in0.0 mm
07:50 PM 60.2°F15.7°C 49.6°F9.8°C 68% Calm Calm 1.2 mph1.9 kmh 29.91 in1012.9 mb - 0.00 in0.0 mm 0.00 in0.0 mm
08:00 PM 60.5°F15.8°C 47.0°F8.3°C 61% Calm Calm -- 29.91 in1012.9 mb - 0.00 in0.0 mm 0.00 in0.0 mm
08:10 PM 60.9°F16.1°C 46.9°F8.3°C 60% Calm Calm -- 29.91 in1012.9 mb - 0.00 in0.0 mm 0.00 in0.0 mm
08:20 PM 61.0°F16.1°C 47.0°F8.3°C 60% Calm Calm -- 29.91 in1012.9 mb - 0.00 in0.0 mm 0.00 in0.0 mm
08:30 PM 60.9°F16.1°C 46.9°F8.3°C 60% Calm Calm -- 29.91 in1012.9 mb - 0.00 in0.0 mm 0.00 in0.0 mm
08:40 PM 60.6°F15.9°C 46.6°F8.1°C 60% Calm Calm -- 29.91 in1012.9 mb - 0.00 in0.0 mm 0.00 in0.0 mm
08:50 PM 60.3°F15.7°C 46.8°F8.2°C 61% Calm Calm -- 29.91 in1012.9 mb - 0.00 in0.0 mm 0.00 in0.0 mm
09:00 PM 59.7°F15.4°C 47.1°F8.4°C 63% Calm Calm -- 29.90 in1012.5 mb - 0.00 in0.0 mm 0.00 in0.0 mm
09:10 PM 59.1°F15.1°C 46.1°F7.8°C 62% Calm Calm -- 29.91 in1012.9 mb - 0.00 in0.0 mm 0.00 in0.0 mm
09:20 PM 58.3°F14.6°C 46.6°F8.1°C 65% Calm Calm -- 29.91 in1012.9 mb - 0.00 in0.0 mm 0.00 in0.0 mm
09:30 PM 57.5°F14.2°C 46.6°F8.1°C 67% Calm Calm -- 29.91 in1012.9 mb - 0.00 in0.0 mm 0.00 in0.0 mm
09:40 PM 56.8°F13.8°C 46.7°F8.2°C 69% Calm Calm -- 29.91 in1012.9 mb - 0.00 in0.0 mm 0.00 in0.0 mm
09:50 PM 56.2°F13.4°C 46.9°F8.3°C 71% Calm Calm -- 29.92 in1013.2 mb - 0.00 in0.0 mm 0.00 in0.0 mm
10:00 PM 55.3°F12.9°C 46.8°F8.2°C 73% Calm Calm -- 29.92 in1013.2 mb - 0.00 in0.0 mm 0.00 in0.0 mm
10:10 PM 54.6°F12.6°C 46.5°F8.1°C 74% Calm Calm -- 29.92 in1013.2 mb - 0.00 in0.0 mm 0.00 in0.0 mm
10:20 PM 54.0°F12.2°C 46.6°F8.1°C 76% Calm Calm -- 29.93 in1013.5 mb - 0.00 in0.0 mm 0.00 in0.0 mm
10:30 PM 53.7°F12.1°C 46.3°F7.9°C 76% Calm Calm -- 29.93 in1013.5 mb - 0.00 in0.0 mm 0.00 in0.0 mm
10:40 PM 53.4°F11.9°C 46.1°F7.8°C 76% Calm Calm -- 29.93 in1013.5 mb - 0.00 in0.0 mm 0.00 in0.0 mm
10:50 PM 53.2°F11.8°C 46.1°F7.8°C 77% Calm Calm -- 29.93 in1013.5 mb - 0.00 in0.0 mm 0.00 in0.0 mm
11:00 PM 52.7°F11.5°C 46.0°F7.8°C 78% Calm Calm -- 29.93 in1013.5 mb - 0.00 in0.0 mm 0.00 in0.0 mm
11:10 PM 52.4°F11.3°C 46.1°F7.8°C 79% Calm Calm -- 29.93 in1013.5 mb - 0.00 in0.0 mm 0.00 in0.0 mm
11:20 PM 52.1°F11.2°C 46.1°F7.8°C 80% Calm Calm -- 29.93 in1013.5 mb - 0.00 in0.0 mm 0.00 in0.0 mm
11:30 PM 51.9°F11.1°C 46.3°F7.9°C 81% Calm Calm -- 29.93 in1013.5 mb - 0.00 in0.0 mm 0.00 in0.0 mm
11:40 PM 51.6°F10.9°C 46.0°F7.8°C 81% Calm Calm -- 29.93 in1013.5 mb - 0.00 in0.0 mm 0.00 in0.0 mm
11:50 PM 51.2°F10.7°C 45.9°F7.7°C 82% Calm Calm -- 29.93 in1013.5 mb - 0.00 in0.0 mm 0.00 in0.0 mm